Time;durP1;ratioP1;P1;durP2;ratioP2;P2;SDS_P1;SDS_P2;PMS_P1;PMS_P2;Temp;Humidity;BMP_temperature;BMP_pressure;BME280_temperature;BME280_humidity;BME280_pressure;Samples;Min_cycle;Max_cycle;Signal;HPM_P1;HPM_P2
2022/02/06 00:01:02;;;;;;;2.92;1.20;;;-4.20;99.90;;;;;;5051605;28;20025;-69
2022/02/06 00:03:30;;;;;;;3.17;1.50;;;-4.30;99.90;;;;;;5051597;28;20067;-69
2022/02/06 00:05:56;;;;;;;1.80;1.20;;;-4.40;99.90;;;;;;5051796;28;20040;-70
2022/02/06 00:08:22;;;;;;;3.58;1.17;;;-4.30;99.90;;;;;;5050261;28;20037;-69
2022/02/06 00:10:48;;;;;;;3.65;1.10;;;-4.30;99.90;;;;;;5050362;28;20021;-69
2022/02/06 00:13:14;;;;;;;2.30;1.20;;;-4.30;99.90;;;;;;5051745;28;20636;-70
2022/02/06 00:15:40;;;;;;;1.83;1.20;;;-4.40;99.90;;;;;;5051587;28;20402;-70
2022/02/06 00:18:06;;;;;;;2.25;1.20;;;-4.40;99.90;;;;;;5051779;28;20025;-70
2022/02/06 00:20:36;;;;;;;4.10;1.27;;;-4.40;99.90;;;;;;5051420;28;20486;-70
2022/02/06 00:23:06;;;;;;;3.85;1.73;;;-4.50;99.90;;;;;;5051535;28;20024;-70
2022/02/06 00:25:54;;;;;;;3.55;1.27;;;-4.50;99.90;;;;;;5051594;28;20025;-70
2022/02/06 00:31:09;;;;;;;2.15;1.50;;;-4.50;99.90;;;;;;5051522;28;20041;-69
2022/02/06 00:33:43;;;;;;;3.70;2.00;;;-4.60;99.90;;;;;;5051042;28;20039;-69
2022/02/06 00:41:24;;;;;;;3.50;1.88;;;-4.80;99.90;;;;;;5051503;28;20520;-69
2022/02/06 00:43:50;;;;;;;5.95;1.25;;;-4.90;99.90;;;;;;5051222;28;20017;-70
2022/02/06 00:46:17;;;;;;;3.67;1.70;;;-4.80;99.90;;;;;;5051424;28;20383;-70
2022/02/06 00:48:57;;;;;;;3.65;1.50;;;-4.90;99.90;;;;;;5051071;28;20033;-71
2022/02/06 00:53:48;;;;;;;3.05;1.40;;;-5.00;99.90;;;;;;5051143;28;20021;-71
2022/02/06 00:56:14;;;;;;;1.65;1.30;;;-5.10;99.90;;;;;;5051243;28;20075;-71
2022/02/06 00:58:40;;;;;;;1.52;1.35;;;-5.10;99.90;;;;;;5051093;28;20091;-71
2022/02/06 01:01:06;;;;;;;1.67;1.20;;;-5.10;99.90;;;;;;5053854;28;20024;-71
2022/02/06 01:03:32;;;;;;;2.15;1.15;;;-5.10;99.90;;;;;;5054891;28;20028;-71
2022/02/06 01:05:58;;;;;;;1.73;1.27;;;-5.10;99.90;;;;;;5054707;28;20381;-71
2022/02/06 01:08:23;;;;;;;2.45;1.30;;;-5.20;99.90;;;;;;5054582;28;20102;-71
2022/02/06 01:10:50;;;;;;;3.25;1.52;;;-5.20;99.90;;;;;;5054435;28;20036;-70
2022/02/06 01:16:21;;;;;;;2.88;1.45;;;-5.50;99.90;;;;;;5054210;28;20341;-72
2022/02/06 01:18:41;;;;;;;3.70;1.60;;;-5.50;99.90;;;;;;5050414;28;20037;-72
2022/02/06 01:23:57;;;;;;;4.10;1.30;;;-5.50;99.90;;;;;;5054611;28;20028;-71
2022/02/06 01:26:46;;;;;;;2.78;1.40;;;-5.40;99.90;;;;;;5053659;28;20041;-72
2022/02/06 01:29:49;;;;;;;1.83;1.20;;;-5.50;99.90;;;;;;5053899;28;20049;-72
2022/02/06 01:32:11;;;;;;;2.33;1.35;;;-5.50;99.90;;;;;;5051060;28;20040;-71
2022/02/06 01:37:24;;;;;;;1.45;1.17;;;-5.50;99.90;;;;;;5054384;28;20032;-72
2022/02/06 01:45:08;;;;;;;2.90;1.30;;;-5.70;99.90;;;;;;5053980;28;20032;-71
2022/02/06 02:12:35;;;;;;;3.07;1.10;;;-6.10;99.90;;;;;;5053689;28;20531;-72
2022/02/06 02:59:14;;;;;;;1.65;1.48;;;-6.60;99.90;;;;;;5052630;28;20056;-72
2022/02/06 03:01:51;;;;;;;2.92;1.35;;;-6.60;99.90;;;;;;5052600;28;20024;-72
2022/02/06 03:37:57;;;;;;;3.85;2.35;;;-6.40;99.90;;;;;;5438390;22;20061;-70
2022/02/06 03:40:26;;;;;;;2.88;2.13;;;-6.40;99.90;;;;;;5052293;28;20486;-70
2022/02/06 03:45:39;;;;;;;16.08;2.58;;;-6.20;99.90;;;;;;5052067;28;20025;-70
2022/02/06 03:48:15;;;;;;;10.68;2.30;;;-6.10;99.90;;;;;;5052020;28;20170;-71
2022/02/06 03:50:46;;;;;;;9.40;2.97;;;-6.10;99.90;;;;;;5051970;28;20062;-71
2022/02/06 03:53:14;;;;;;;11.90;2.85;;;-6.00;99.90;;;;;;5051995;28;20029;-71
2022/02/06 03:55:40;;;;;;;7.85;2.88;;;-6.00;99.90;;;;;;5052145;28;20029;-71
2022/02/06 03:58:05;;;;;;;13.23;3.17;;;-5.90;99.90;;;;;;5051921;28;20361;-71
2022/02/06 04:00:31;;;;;;;8.68;3.40;;;-5.80;99.90;;;;;;5051889;28;20531;-71
2022/02/06 04:02:57;;;;;;;8.05;2.78;;;-5.70;99.90;;;;;;5051696;28;20116;-71
2022/02/06 04:05:23;;;;;;;10.40;3.25;;;-5.70;99.90;;;;;;5051771;28;20024;-71
2022/02/06 04:07:48;;;;;;;10.63;3.50;;;-5.60;99.90;;;;;;5051612;28;20040;-71
2022/02/06 04:10:16;;;;;;;14.68;2.65;;;-5.60;99.90;;;;;;5052000;28;20039;-74
2022/02/06 04:12:44;;;;;;;11.52;3.10;;;-5.50;99.90;;;;;;5051953;28;20061;-73
2022/02/06 04:15:21;;;;;;;17.67;3.35;;;-5.50;99.90;;;;;;5051832;28;20037;-73
2022/02/06 04:17:55;;;;;;;9.93;2.97;;;-5.40;99.90;;;;;;5051659;28;20068;-73
2022/02/06 04:20:20;;;;;;;10.13;2.97;;;-5.40;99.90;;;;;;5051602;28;20017;-73
2022/02/06 04:22:46;;;;;;;16.48;3.63;;;-5.30;99.90;;;;;;5051859;28;20044;-74
2022/02/06 04:25:12;;;;;;;11.27;2.97;;;-5.20;99.90;;;;;;5051419;28;20025;-74
2022/02/06 04:27:38;;;;;;;9.73;2.85;;;-5.20;99.90;;;;;;5051499;28;20037;-72
2022/02/06 04:30:04;;;;;;;8.05;3.20;;;-5.10;99.90;;;;;;5051644;28;20028;-72
2022/02/06 04:32:31;;;;;;;7.25;2.92;;;-5.10;99.90;;;;;;5051823;28;20025;-73
2022/02/06 04:34:57;;;;;;;11.27;3.20;;;-5.00;99.90;;;;;;5052458;28;20116;-73
2022/02/06 04:51:14;;;;;;;8.10;3.47;;;-4.70;99.90;;;;;;5075348;28;20017;-73
2022/02/06 05:30:25;;;;;;;10.35;2.50;;;-4.00;99.90;;;;;;5074306;28;20376;-72
2022/02/06 05:35:19;;;;;;;7.22;1.90;;;-3.80;99.90;;;;;;5074498;28;20111;-74
2022/02/06 05:37:45;;;;;;;5.63;2.13;;;-3.80;99.90;;;;;;5074033;28;20131;-74
2022/02/06 05:40:11;;;;;;;3.80;2.00;;;-3.80;99.90;;;;;;5074172;28;20024;-71
2022/02/06 05:42:36;;;;;;;9.45;2.28;;;-3.60;99.90;;;;;;5074028;28;20027;-72
2022/02/06 05:45:03;;;;;;;9.25;2.72;;;-3.30;99.90;;;;;;5072688;28;20033;-70
2022/02/06 05:47:29;;;;;;;6.47;2.58;;;-3.20;99.90;;;;;;5066219;28;20032;-77
2022/02/06 05:49:55;;;;;;;4.82;1.92;;;-3.30;99.90;;;;;;5053466;28;20388;-71
2022/02/06 05:52:22;;;;;;;6.93;2.15;;;-3.30;99.90;;;;;;5053392;28;20043;-74
2022/02/06 05:54:48;;;;;;;4.57;2.92;;;-3.30;99.90;;;;;;5053446;28;20557;-76
2022/02/06 05:57:14;;;;;;;15.23;5.45;;;-3.20;99.90;;;;;;5053251;28;20025;-73
2022/02/06 05:59:40;;;;;;;3.80;2.15;;;-3.20;99.90;;;;;;5053284;28;20024;-74
2022/02/06 06:02:06;;;;;;;12.00;4.18;;;-3.20;99.90;;;;;;5051800;28;20448;-73
2022/02/06 06:04:32;;;;;;;7.50;2.35;;;-3.10;99.90;;;;;;5053528;28;20049;-71
2022/02/06 06:06:58;;;;;;;9.20;2.45;;;-3.00;99.90;;;;;;5053237;28;20431;-78
2022/02/06 06:09:24;;;;;;;5.50;2.00;;;-2.90;99.90;;;;;;5053464;28;20563;-79
2022/02/06 06:11:49;;;;;;;6.13;1.63;;;-2.90;99.90;;;;;;5053850;28;20021;-79
2022/02/06 06:14:15;;;;;;;7.60;1.73;;;-2.90;99.90;;;;;;5053498;28;20079;-80
2022/02/06 06:16:41;;;;;;;6.85;1.73;;;-2.90;99.90;;;;;;5053196;28;20484;-79
2022/02/06 06:19:07;;;;;;;4.15;1.75;;;-2.90;99.90;;;;;;5053449;28;20029;-82
2022/02/06 06:21:42;;;;;;;9.60;1.88;;;-2.80;99.90;;;;;;5053479;28;20048;-73
2022/02/06 06:24:08;;;;;;;5.50;1.50;;;-2.80;99.90;;;;;;5053405;28;20506;-76
2022/02/06 06:26:38;;;;;;;8.20;1.65;;;-2.70;99.90;;;;;;5053432;28;20024;-73
2022/02/06 06:29:04;;;;;;;3.15;1.33;;;-2.70;99.90;;;;;;5053503;28;20123;-81
2022/02/06 06:31:30;;;;;;;5.93;1.42;;;-2.60;99.90;;;;;;5053124;28;20021;-75
2022/02/06 06:33:56;;;;;;;4.38;1.55;;;-2.40;99.90;;;;;;5053513;28;20033;-76
2022/02/06 06:36:22;;;;;;;9.80;1.90;;;-2.40;99.90;;;;;;5052938;28;20048;-76
2022/02/06 06:38:53;;;;;;;4.43;1.50;;;-2.40;99.90;;;;;;5052955;28;20129;-76
2022/02/06 06:41:19;;;;;;;8.32;1.50;;;-2.40;99.90;;;;;;5053134;28;20154;-76
2022/02/06 06:43:45;;;;;;;5.45;1.70;;;-2.40;99.90;;;;;;5053013;28;20021;-76
2022/02/06 06:46:12;;;;;;;9.20;2.17;;;-2.40;99.90;;;;;;5052945;28;20108;-76
2022/02/06 06:48:39;;;;;;;5.13;1.33;;;-2.30;99.90;;;;;;5052846;28;20037;-76
2022/02/06 06:51:05;;;;;;;11.90;1.95;;;-2.30;99.90;;;;;;5052918;28;20025;-76
2022/02/06 06:53:31;;;;;;;5.50;1.48;;;-2.30;99.90;;;;;;5052670;28;20036;-73
2022/02/06 06:56:02;;;;;;;3.28;1.35;;;-2.30;99.90;;;;;;5052885;28;20025;-73
2022/02/06 06:58:28;;;;;;;3.13;1.15;;;-2.20;99.90;;;;;;5051262;28;20122;-76
2022/02/06 07:03:24;;;;;;;6.38;1.50;;;-2.20;99.90;;;;;;5051329;28;20361;-73
2022/02/06 07:05:50;;;;;;;5.57;1.27;;;-2.20;99.90;;;;;;5052704;28;20530;-77
2022/02/06 07:08:16;;;;;;;4.18;1.50;;;-1.90;99.90;;;;;;5052518;28;20033;-69
2022/02/06 07:10:44;;;;;;;3.20;1.42;;;-1.40;99.90;;;;;;5052825;28;20033;-69
2022/02/06 07:13:11;;;;;;;5.28;1.33;;;-1.30;99.90;;;;;;5052287;28;20052;-73
2022/02/06 07:15:37;;;;;;;6.30;1.33;;;-1.30;99.90;;;;;;5051868;28;20044;-72
2022/02/06 07:18:02;;;;;;;4.43;1.30;;;-1.50;99.90;;;;;;5051588;28;20021;-69
2022/02/06 07:20:30;;;;;;;3.00;1.10;;;-1.60;99.90;;;;;;5051947;28;20048;-70
2022/02/06 07:22:56;;;;;;;4.88;1.40;;;-1.70;99.90;;;;;;5052157;28;20033;-69
2022/02/06 07:25:21;;;;;;;6.03;1.35;;;-1.80;99.90;;;;;;5052128;28;20025;-69
2022/02/06 07:27:49;;;;;;;3.67;1.30;;;-1.80;99.90;;;;;;5048286;28;20036;-71
2022/02/06 07:30:16;;;;;;;3.83;1.25;;;-1.90;99.90;;;;;;5049752;28;20029;-71
2022/02/06 07:32:42;;;;;;;8.38;1.75;;;-1.90;99.90;;;;;;5051681;28;20090;-73
2022/02/06 07:35:10;;;;;;;4.55;1.48;;;-1.90;99.90;;;;;;5050708;28;20029;-72
2022/02/06 07:37:37;;;;;;;2.50;1.40;;;-1.90;99.90;;;;;;5052040;28;20076;-74
2022/02/06 07:40:04;;;;;;;6.03;1.83;;;-1.90;99.90;;;;;;5052481;28;20029;-72
2022/02/06 07:42:30;;;;;;;3.78;1.52;;;-1.90;99.90;;;;;;5052084;28;20047;-76
2022/02/06 07:44:55;;;;;;;4.95;1.50;;;-1.90;99.90;;;;;;5051853;28;20130;-73
2022/02/06 07:47:23;;;;;;;5.35;1.60;;;-1.90;99.90;;;;;;5051867;28;20032;-72
2022/02/06 07:49:51;;;;;;;7.80;2.22;;;-1.90;99.90;;;;;;5052251;28;20029;-72
2022/02/06 07:52:20;;;;;;;7.28;1.83;;;-1.90;99.90;;;;;;5051859;28;20029;-72
2022/02/06 07:54:46;;;;;;;6.85;1.27;;;-1.90;99.90;;;;;;5051681;28;20112;-69
2022/02/06 07:57:11;;;;;;;7.03;1.40;;;-1.40;99.90;;;;;;5051407;28;20032;-72
2022/02/06 07:59:37;;;;;;;8.45;1.52;;;-0.30;99.90;;;;;;5052124;28;20028;-74
2022/02/06 08:02:05;;;;;;;7.88;1.80;;;0.00;99.90;;;;;;5052116;28;20029;-73
2022/02/06 08:04:31;;;;;;;4.15;1.23;;;-0.20;99.90;;;;;;5051667;28;20021;-74
2022/02/06 08:06:57;;;;;;;4.38;1.67;;;-0.40;99.90;;;;;;5052002;28;20025;-74
2022/02/06 08:09:38;;;;;;;5.25;1.45;;;-0.30;99.90;;;;;;5053489;28;20404;-74
2022/02/06 08:12:05;;;;;;;5.00;1.70;;;-0.20;99.90;;;;;;5054450;28;20025;-74
2022/02/06 08:14:52;;;;;;;7.50;1.85;;;-0.50;99.90;;;;;;5055355;28;20492;-74
2022/02/06 08:17:19;;;;;;;6.40;1.70;;;-0.30;99.90;;;;;;5056634;28;20106;-74
2022/02/06 08:19:45;;;;;;;5.43;1.50;;;-0.20;99.90;;;;;;5055938;28;20429;-74
2022/02/06 08:22:11;;;;;;;2.58;1.30;;;-0.30;99.90;;;;;;5055788;28;20048;-74
2022/02/06 08:24:37;;;;;;;2.35;1.27;;;-0.40;99.90;;;;;;5055601;28;20021;-74
2022/02/06 08:27:03;;;;;;;4.85;1.55;;;-0.40;99.90;;;;;;5055862;28;20569;-74
2022/02/06 08:29:29;;;;;;;3.50;1.95;;;-0.20;99.90;;;;;;5055573;28;20468;-78
2022/02/06 08:31:55;;;;;;;7.18;2.10;;;-0.10;99.90;;;;;;5055407;28;20044;-79
2022/02/06 08:34:20;;;;;;;3.33;1.60;;;0.00;99.90;;;;;;5055302;28;20021;-79
2022/02/06 08:36:46;;;;;;;3.35;1.52;;;0.00;99.90;;;;;;5055116;28;20045;-79
2022/02/06 08:39:12;;;;;;;4.53;1.42;;;0.30;99.90;;;;;;5055233;28;20541;-78
2022/02/06 08:41:37;;;;;;;2.20;1.30;;;0.40;99.90;;;;;;5055259;28;20021;-69
2022/02/06 08:44:04;;;;;;;6.72;1.63;;;0.60;99.90;;;;;;5055284;28;20021;-74
2022/02/06 08:46:30;;;;;;;4.07;1.45;;;0.60;99.90;;;;;;5053868;28;20036;-72
2022/02/06 08:48:56;;;;;;;5.18;1.75;;;0.40;99.90;;;;;;5054656;28;20037;-70
2022/02/06 08:51:22;;;;;;;7.55;1.80;;;0.40;99.90;;;;;;5055171;28;20025;-67
2022/02/06 08:53:48;;;;;;;3.83;1.63;;;0.80;99.90;;;;;;5055003;28;20369;-74
2022/02/06 08:56:14;;;;;;;7.47;1.60;;;0.40;99.90;;;;;;5055168;28;20028;-73
2022/02/06 08:58:40;;;;;;;7.20;1.80;;;0.00;99.90;;;;;;5055035;28;20544;-73
2022/02/06 09:01:06;;;;;;;7.65;1.85;;;-0.20;99.90;;;;;;5054952;28;20029;-72
2022/02/06 09:03:32;;;;;;;6.80;2.22;;;-0.40;99.90;;;;;;5054793;28;20099;-72
2022/02/06 09:05:57;;;;;;;4.63;1.67;;;-0.60;99.90;;;;;;5055245;28;20025;-73
2022/02/06 09:08:23;;;;;;;8.75;1.70;;;-0.70;99.90;;;;;;5054568;28;20091;-73
2022/02/06 09:10:49;;;;;;;5.22;1.85;;;-0.80;99.90;;;;;;5054798;28;20043;-73
2022/02/06 09:13:15;;;;;;;6.13;1.67;;;-0.80;99.90;;;;;;5054615;28;20032;-73
2022/02/06 09:15:41;;;;;;;6.00;1.85;;;-0.90;99.90;;;;;;5054745;28;20463;-73
2022/02/06 09:18:07;;;;;;;4.68;1.55;;;-0.90;99.90;;;;;;5054613;28;20025;-73
2022/02/06 09:20:33;;;;;;;7.70;2.13;;;-0.90;99.90;;;;;;5053512;28;20140;-73
2022/02/06 09:23:03;;;;;;;3.88;1.85;;;-1.00;99.90;;;;;;5054578;28;20060;-73
2022/02/06 09:25:29;;;;;;;4.22;1.52;;;-1.00;99.90;;;;;;5054613;28;20031;-73
2022/02/06 09:27:55;;;;;;;5.47;1.80;;;-1.00;99.90;;;;;;5054311;28;20029;-73
2022/02/06 09:30:25;;;;;;;5.47;1.75;;;-1.10;99.90;;;;;;5054546;28;20032;-73
2022/02/06 09:35:20;;;;;;;4.38;1.73;;;-1.10;99.90;;;;;;5054452;28;20506;-71
2022/02/06 09:37:46;;;;;;;9.02;2.10;;;-1.00;99.90;;;;;;5053888;28;20049;-70
2022/02/06 09:40:15;;;;;;;10.63;1.80;;;-0.90;99.90;;;;;;5054447;28;20037;-70
2022/02/06 09:42:49;;;;;;;5.10;1.63;;;-0.90;99.90;;;;;;5054217;28;20104;-70
2022/02/06 09:45:15;;;;;;;5.93;2.05;;;-1.00;99.90;;;;;;5054089;28;20036;-70
2022/02/06 09:47:43;;;;;;;12.48;2.58;;;-1.00;99.90;;;;;;5054229;28;20036;-70
2022/02/06 09:50:09;;;;;;;11.90;2.65;;;-1.10;99.90;;;;;;5053932;28;20033;-71
2022/02/06 09:52:38;;;;;;;4.70;2.40;;;-1.10;99.90;;;;;;5054121;28;20043;-71
2022/02/06 09:55:10;;;;;;;8.07;2.40;;;-0.70;99.90;;;;;;5053582;28;20047;-71
2022/02/06 10:00:37;;;;;;;10.23;1.77;;;-0.90;99.90;;;;;;5016429;28;20516;-69
2022/02/06 10:03:06;;;;;;;5.13;1.92;;;-1.00;99.90;;;;;;5053845;28;20025;-70
2022/02/06 10:05:35;;;;;;;7.97;2.70;;;-1.10;99.90;;;;;;5053707;28;20558;-70
2022/02/06 10:08:12;;;;;;;6.57;1.95;;;-1.10;99.90;;;;;;5053570;28;20041;-70
2022/02/06 10:11:04;;;;;;;5.85;1.75;;;-1.10;99.90;;;;;;5053857;28;20025;-69
2022/02/06 10:13:36;;;;;;;4.65;1.88;;;-1.20;99.90;;;;;;5053688;28;20017;-70
2022/02/06 10:16:04;;;;;;;9.30;2.58;;;-1.20;99.90;;;;;;5053501;28;20073;-70
2022/02/06 10:18:31;;;;;;;8.55;2.45;;;-1.20;99.90;;;;;;5054046;28;20075;-69
2022/02/06 10:20:58;;;;;;;8.18;2.67;;;-1.20;99.90;;;;;;5053506;28;20557;-69
2022/02/06 10:23:41;;;;;;;8.20;2.88;;;-1.20;99.90;;;;;;5052766;28;20028;-70
2022/02/06 10:26:34;;;;;;;4.80;2.28;;;-1.30;99.90;;;;;;5053462;28;20059;-70
2022/02/06 10:31:39;;;;;;;8.05;2.25;;;-1.20;99.90;;;;;;5053580;28;20481;-70
2022/02/06 10:34:18;;;;;;;6.80;2.22;;;-1.20;99.90;;;;;;5053202;28;20049;-70
2022/02/06 10:36:43;;;;;;;3.30;1.38;;;-1.20;99.90;;;;;;5052977;28;20032;-70
2022/02/06 10:39:10;;;;;;;6.47;1.90;;;-1.20;99.90;;;;;;5053374;28;20029;-70
2022/02/06 10:41:47;;;;;;;4.43;2.00;;;-1.20;99.90;;;;;;5052954;28;20053;-70
2022/02/06 10:44:14;;;;;;;4.28;2.00;;;-1.20;99.90;;;;;;5052600;28;20043;-70
2022/02/06 10:46:48;;;;;;;10.13;2.60;;;-1.20;99.90;;;;;;5053050;28;20029;-71
2022/02/06 10:49:19;;;;;;;7.20;2.35;;;-1.20;99.90;;;;;;5052729;28;20036;-70
2022/02/06 10:51:53;;;;;;;4.47;1.95;;;-1.20;99.90;;;;;;5052909;28;20025;-70
2022/02/06 10:54:41;;;;;;;6.57;2.05;;;-1.20;99.90;;;;;;5052690;28;20021;-70
2022/02/06 10:57:15;;;;;;;9.43;2.22;;;-1.20;99.90;;;;;;5052546;28;20465;-69
2022/02/06 10:59:46;;;;;;;9.88;2.72;;;-1.20;99.90;;;;;;5052170;28;20021;-74
2022/02/06 11:02:37;;;;;;;6.20;1.88;;;-1.20;99.90;;;;;;5050319;28;20036;-73
2022/02/06 11:05:15;;;;;;;3.40;1.52;;;-1.20;99.90;;;;;;5052861;28;20028;-72
2022/02/06 11:08:10;;;;;;;6.07;1.50;;;-1.10;99.90;;;;;;5052536;28;20035;-72
2022/02/06 11:10:36;;;;;;;3.80;1.60;;;-1.20;99.90;;;;;;5039415;28;20466;-73
2022/02/06 11:13:04;;;;;;;3.10;1.50;;;-1.20;99.90;;;;;;5052502;28;20024;-72
2022/02/06 11:15:44;;;;;;;4.75;1.48;;;-1.20;99.90;;;;;;5052252;28;20507;-72
2022/02/06 11:18:21;;;;;;;7.18;1.67;;;-1.20;99.90;;;;;;5052634;28;20108;-72
2022/02/06 11:20:58;;;;;;;4.50;1.77;;;-1.20;99.90;;;;;;5051121;28;20049;-73
2022/02/06 11:23:48;;;;;;;8.35;2.00;;;-1.20;99.90;;;;;;5052123;28;20147;-72
2022/02/06 11:26:20;;;;;;;4.40;1.95;;;-1.20;99.90;;;;;;5052147;28;20021;-72
2022/02/06 11:28:46;;;;;;;4.18;1.88;;;-1.10;99.90;;;;;;5052171;28;20052;-72
2022/02/06 11:31:16;;;;;;;4.22;1.80;;;-1.10;99.90;;;;;;5052451;28;20153;-73
2022/02/06 11:33:42;;;;;;;7.15;2.03;;;-1.10;99.90;;;;;;5051968;28;20120;-72
2022/02/06 11:36:17;;;;;;;3.40;1.40;;;-1.10;99.90;;;;;;5052285;28;20031;-72
2022/02/06 11:45:04;;;;;;;7.07;2.50;;;-1.00;99.90;;;;;;5051784;28;20070;-73
2022/02/06 11:47:43;;;;;;;3.55;1.95;;;-1.00;99.90;;;;;;5051781;28;20029;-72
2022/02/06 11:50:11;;;;;;;7.72;1.88;;;-1.00;99.90;;;;;;5052402;28;20029;-72
2022/02/06 11:52:57;;;;;;;4.97;2.13;;;-0.90;99.90;;;;;;5052003;28;20021;-72
2022/02/06 11:55:49;;;;;;;8.10;2.30;;;-0.90;99.90;;;;;;5052046;28;20032;-73
2022/02/06 11:58:25;;;;;;;5.38;2.03;;;-0.90;99.90;;;;;;5051724;28;20033;-73
2022/02/06 12:01:06;;;;;;;6.47;2.72;;;-0.90;99.90;;;;;;5031956;28;20044;-73
2022/02/06 12:03:47;;;;;;;3.45;1.85;;;-0.90;99.90;;;;;;5030527;28;20033;-73
2022/02/06 12:06:15;;;;;;;4.70;1.90;;;-0.90;99.90;;;;;;5031961;28;20036;-72
2022/02/06 12:08:44;;;;;;;8.38;2.17;;;-0.80;99.90;;;;;;5035407;28;20047;-69
2022/02/06 12:11:12;;;;;;;7.53;2.50;;;-0.80;99.90;;;;;;5051693;28;20017;-69
2022/02/06 12:13:39;;;;;;;8.75;2.67;;;-0.80;99.90;;;;;;5051876;28;20028;-69
2022/02/06 12:16:07;;;;;;;5.57;2.13;;;-0.80;99.90;;;;;;5051862;28;20095;-69
2022/02/06 12:18:38;;;;;;;6.63;2.30;;;-0.80;99.90;;;;;;5051795;28;20090;-69
2022/02/06 12:21:12;;;;;;;8.50;2.38;;;-0.70;99.90;;;;;;5051526;28;20484;-69
2022/02/06 12:23:51;;;;;;;5.05;2.17;;;-0.20;99.90;;;;;;5051721;28;20034;-68
2022/02/06 12:26:32;;;;;;;6.60;2.67;;;-0.40;99.90;;;;;;5051678;28;20013;-69
2022/02/06 12:29:02;;;;;;;;;;;-0.40;99.90;;;;;;5051970;28;20306;-69
2022/02/06 12:31:32;;;;;;;8.38;2.17;;;-0.50;99.90;;;;;;5051629;28;19935;-69
2022/02/06 12:39:27;;;;;;;3.22;1.73;;;-0.50;99.90;;;;;;5051572;28;20416;-70
2022/02/06 12:41:54;;;;;;;5.60;2.28;;;-0.50;99.90;;;;;;5051462;28;20053;-69
2022/02/06 12:44:20;;;;;;;5.53;2.20;;;-0.50;99.90;;;;;;5051349;28;20488;-69
2022/02/06 12:46:47;;;;;;;11.10;2.35;;;-0.50;99.90;;;;;;5051256;28;20052;-69
2022/02/06 12:49:21;;;;;;;7.03;1.83;;;-0.50;99.90;;;;;;5051261;28;20041;-69
2022/02/06 12:51:53;;;;;;;8.82;2.00;;;-0.50;99.90;;;;;;5051299;28;20449;-72
2022/02/06 12:54:20;;;;;;;6.47;2.03;;;-0.40;99.90;;;;;;5051311;28;20028;-72
2022/02/06 12:56:46;;;;;;;5.68;2.05;;;-0.40;99.90;;;;;;5053473;28;20063;-69
2022/02/06 12:59:17;;;;;;;8.70;2.10;;;-0.10;99.90;;;;;;5055201;28;20254;-73
2022/02/06 13:01:45;;;;;;;6.72;2.40;;;3.20;99.90;;;;;;5054870;28;20091;-69
2022/02/06 13:04:14;;;;;;;8.18;2.30;;;4.00;99.90;;;;;;5054942;28;20028;-70
2022/02/06 13:06:45;;;;;;;8.02;1.92;;;2.80;99.90;;;;;;5054837;28;20032;-69
2022/02/06 13:09:26;;;;;;;8.52;2.30;;;2.20;99.90;;;;;;5055069;28;20079;-69
2022/02/06 13:12:01;;;;;;;3.75;1.88;;;1.50;99.90;;;;;;5055186;28;20013;-69
2022/02/06 13:15:12;;;;;;;5.32;1.98;;;1.00;99.90;;;;;;5053588;28;20024;-69
2022/02/06 13:20:34;;;;;;;4.57;1.77;;;0.50;99.90;;;;;;5055033;28;20049;-69
2022/02/06 13:26:00;;;;;;;6.22;1.83;;;0.20;99.90;;;;;;5054547;28;20033;-69
2022/02/06 13:28:42;;;;;;;3.53;2.03;;;0.20;99.90;;;;;;5054442;28;20468;-69
2022/02/06 13:31:40;;;;;;;3.92;1.65;;;0.20;99.90;;;;;;5054649;28;20040;-69
2022/02/06 13:36:42;;;;;;;3.40;1.40;;;0.10;99.90;;;;;;5053885;28;20067;-69
2022/02/06 13:39:18;;;;;;;6.80;2.00;;;0.40;99.90;;;;;;5054553;28;20060;-70
2022/02/06 13:41:44;;;;;;;6.88;2.35;;;0.90;99.90;;;;;;5054202;28;20044;-69
2022/02/06 13:44:18;;;;;;;3.20;1.70;;;0.70;99.90;;;;;;5054925;28;20056;-69
2022/02/06 13:46:45;;;;;;;7.00;2.30;;;0.50;99.90;;;;;;5054272;28;20094;-69
2022/02/06 13:49:12;;;;;;;7.63;1.83;;;0.30;99.90;;;;;;5053809;28;20112;-70
2022/02/06 13:51:48;;;;;;;4.15;1.85;;;0.20;99.90;;;;;;5053719;28;20104;-69
2022/02/06 13:54:15;;;;;;;4.60;1.98;;;0.20;99.90;;;;;;5033992;28;20049;-69
2022/02/06 13:56:41;;;;;;;5.13;1.92;;;0.10;99.90;;;;;;5033973;28;20029;-69
2022/02/06 13:59:13;;;;;;;5.10;2.00;;;0.10;99.90;;;;;;5034013;28;20107;-69
2022/02/06 14:01:51;;;;;;;3.75;2.05;;;0.10;99.90;;;;;;5033857;28;20469;-69
2022/02/06 14:04:28;;;;;;;5.53;2.00;;;0.00;99.90;;;;;;5033937;28;20026;-69
2022/02/06 14:07:13;;;;;;;2.78;1.75;;;0.00;99.90;;;;;;5033447;28;20526;-69
2022/02/06 14:12:23;;;;;;;4.18;1.52;;;0.00;99.90;;;;;;5034186;28;20113;-69
2022/02/06 14:14:57;;;;;;;8.20;2.03;;;0.00;99.90;;;;;;5035176;28;20040;-69
2022/02/06 14:17:30;;;;;;;5.32;1.75;;;0.00;99.90;;;;;;5053681;28;20092;-69
2022/02/06 14:19:59;;;;;;;5.80;1.73;;;0.00;99.90;;;;;;5051588;28;20021;-69
2022/02/06 14:22:43;;;;;;;2.88;1.38;;;0.00;99.90;;;;;;5053405;28;20033;-69
2022/02/06 14:25:15;;;;;;;4.03;1.40;;;0.00;99.90;;;;;;5053353;28;20033;-69
2022/02/06 14:27:43;;;;;;;3.83;2.10;;;0.00;99.90;;;;;;5053493;28;20059;-69
2022/02/06 14:30:21;;;;;;;4.43;1.98;;;0.00;99.90;;;;;;5053492;28;20032;-69
2022/02/06 14:33:07;;;;;;;3.58;1.42;;;0.00;99.90;;;;;;5053169;28;20400;-69
2022/02/06 14:35:57;;;;;;;4.30;1.80;;;0.00;99.90;;;;;;5052992;28;20033;-69
2022/02/06 14:38:32;;;;;;;4.90;1.85;;;0.00;99.90;;;;;;5052874;28;20099;-70
2022/02/06 14:44:04;;;;;;;3.95;1.73;;;0.00;99.90;;;;;;5053166;28;20434;-69
2022/02/06 14:46:32;;;;;;;1.98;1.48;;;0.00;99.90;;;;;;5052924;28;20074;-69
2022/02/06 14:48:59;;;;;;;4.95;1.60;;;0.00;99.90;;;;;;5053083;28;20383;-68
2022/02/06 14:51:26;;;;;;;4.18;1.67;;;0.00;99.90;;;;;;5052825;28;20029;-68
2022/02/06 14:53:59;;;;;;;5.07;1.73;;;0.00;99.90;;;;;;5052779;28;20032;-70
2022/02/06 14:56:29;;;;;;;1.63;1.25;;;0.10;99.90;;;;;;5052693;28;20032;-71
2022/02/06 14:58:56;;;;;;;5.93;1.55;;;0.30;99.90;;;;;;5052707;28;20375;-69
2022/02/06 15:01:21;;;;;;;2.38;1.40;;;1.60;99.90;;;;;;5052772;28;20431;-68
2022/02/06 15:03:47;;;;;;;3.75;1.50;;;1.50;99.90;;;;;;5052523;28;20021;-68
2022/02/06 15:06:13;;;;;;;2.13;1.50;;;1.10;99.90;;;;;;5052581;28;20116;-69
2022/02/06 15:08:39;;;;;;;2.60;1.40;;;0.80;99.90;;;;;;5051237;28;20494;-68
2022/02/06 15:11:04;;;;;;;2.65;1.60;;;0.60;99.90;;;;;;5052364;28;20103;-68
2022/02/06 15:13:33;;;;;;;2.40;1.60;;;0.50;99.90;;;;;;5051671;28;20059;-68
2022/02/06 15:16:06;;;;;;;2.47;1.60;;;0.40;99.90;;;;;;5049784;28;20353;-68
2022/02/06 15:18:47;;;;;;;4.20;1.80;;;0.40;99.90;;;;;;5051406;28;20025;-68
2022/02/06 15:21:13;;;;;;;4.18;1.27;;;0.30;99.90;;;;;;5051796;28;20063;-69
2022/02/06 15:23:40;;;;;;;4.95;1.50;;;0.30;99.90;;;;;;5050881;28;20024;-68
2022/02/06 15:26:07;;;;;;;2.30;1.50;;;0.30;99.90;;;;;;5052380;28;20119;-69
2022/02/06 15:28:33;;;;;;;3.67;1.52;;;0.30;99.90;;;;;;5052122;28;20044;-68
2022/02/06 15:30:59;;;;;;;3.70;1.60;;;0.30;99.90;;;;;;5052141;28;20031;-68
2022/02/06 15:33:24;;;;;;;4.25;2.13;;;0.20;99.90;;;;;;5052409;28;20029;-68
2022/02/06 15:35:51;;;;;;;3.10;1.50;;;0.30;99.90;;;;;;5051836;28;20032;-68
2022/02/06 15:38:20;;;;;;;6.57;1.83;;;0.20;99.90;;;;;;5051862;28;20041;-68
2022/02/06 15:40:48;;;;;;;3.47;1.95;;;0.20;99.90;;;;;;5052184;28;20053;-68
2022/02/06 15:43:14;;;;;;;2.42;1.60;;;0.20;99.90;;;;;;5050778;28;20407;-68
2022/02/06 15:45:40;;;;;;;3.38;1.80;;;0.20;99.90;;;;;;5052113;28;20025;-68
2022/02/06 15:48:07;;;;;;;2.42;1.55;;;0.20;99.90;;;;;;5051921;28;20067;-68
2022/02/06 15:50:33;;;;;;;3.47;1.52;;;0.20;99.90;;;;;;5051022;28;20498;-68
2022/02/06 15:52:59;;;;;;;3.05;1.60;;;0.20;99.90;;;;;;5051995;28;20481;-68
2022/02/06 15:55:25;;;;;;;4.47;1.83;;;0.20;99.90;;;;;;5051855;28;20067;-68
2022/02/06 15:57:50;;;;;;;2.88;1.50;;;0.30;99.90;;;;;;5052066;28;20456;-69
2022/02/06 16:00:17;;;;;;;4.10;1.63;;;0.30;99.90;;;;;;5051927;28;20033;-69
2022/02/06 16:02:43;;;;;;;4.30;1.80;;;0.20;99.90;;;;;;5052085;28;20052;-68
2022/02/06 16:05:12;;;;;;;1.92;1.40;;;0.30;99.90;;;;;;5051857;28;20473;-67
2022/02/06 16:07:41;;;;;;;3.17;1.27;;;0.30;99.90;;;;;;5051845;28;20116;-70
2022/02/06 16:10:08;;;;;;;3.75;1.42;;;0.30;99.90;;;;;;5051816;28;20026;-69
2022/02/06 16:12:34;;;;;;;2.83;1.60;;;0.30;99.90;;;;;;5052173;28;20048;-69
2022/02/06 16:15:00;;;;;;;2.15;1.30;;;0.40;99.90;;;;;;5051725;28;20051;-69
2022/02/06 16:17:26;;;;;;;2.20;1.25;;;0.30;99.90;;;;;;5051746;28;20112;-69
2022/02/06 16:19:51;;;;;;;2.85;1.60;;;0.50;99.90;;;;;;5051584;28;20021;-69
2022/02/06 16:22:17;;;;;;;5.65;1.40;;;0.60;99.90;;;;;;5052019;28;20096;-71
2022/02/06 16:24:43;;;;;;;2.70;1.20;;;0.60;99.90;;;;;;5051767;28;20033;-69
2022/02/06 16:27:11;;;;;;;2.58;1.60;;;1.30;99.90;;;;;;5051571;28;20107;-69
2022/02/06 16:29:39;;;;;;;2.65;1.25;;;1.10;99.90;;;;;;5051679;28;20037;-69
2022/02/06 16:32:05;;;;;;;3.92;1.67;;;0.90;99.90;;;;;;5055836;28;20021;-69
2022/02/06 16:34:31;;;;;;;1.95;1.38;;;0.70;99.90;;;;;;5055727;28;20413;-69
2022/02/06 16:36:57;;;;;;;1.83;1.20;;;0.70;99.90;;;;;;5055061;28;20044;-69
2022/02/06 16:39:25;;;;;;;2.53;1.33;;;0.60;99.90;;;;;;5055407;28;20439;-69
2022/02/06 16:41:52;;;;;;;3.67;1.40;;;0.70;99.90;;;;;;5055265;28;20383;-69